sensor_id;sensor_type;location;lat;lon;timestamp;temperature;humidity
8655;DHT22;13500;52.514;13.462;2022-09-01T00:00:26;16.80;97.80
8655;DHT22;13500;52.514;13.462;2022-09-01T00:02:55;16.80;98.00
8655;DHT22;13500;52.514;13.462;2022-09-01T00:05:24;16.70;97.90
8655;DHT22;13500;52.514;13.462;2022-09-01T00:07:52;16.70;98.10
8655;DHT22;13500;52.514;13.462;2022-09-01T00:10:20;16.70;98.20
8655;DHT22;13500;52.514;13.462;2022-09-01T00:12:49;16.70;98.30
8655;DHT22;13500;52.514;13.462;2022-09-01T00:15:17;16.70;98.40
8655;DHT22;13500;52.514;13.462;2022-09-01T00:17:46;16.70;98.40
8655;DHT22;13500;52.514;13.462;2022-09-01T00:20:14;16.70;98.40
8655;DHT22;13500;52.514;13.462;2022-09-01T00:22:46;16.70;98.40
8655;DHT22;13500;52.514;13.462;2022-09-01T00:25:15;16.70;98.30
8655;DHT22;13500;52.514;13.462;2022-09-01T00:27:44;16.60;98.50
8655;DHT22;13500;52.514;13.462;2022-09-01T00:30:13;16.50;98.50
8655;DHT22;13500;52.514;13.462;2022-09-01T00:32:42;16.60;98.70
8655;DHT22;13500;52.514;13.462;2022-09-01T00:35:15;16.60;98.60
8655;DHT22;13500;52.514;13.462;2022-09-01T00:37:44;16.60;98.60
8655;DHT22;13500;52.514;13.462;2022-09-01T00:40:14;16.60;98.40
8655;DHT22;13500;52.514;13.462;2022-09-01T00:42:43;16.60;98.30
8655;DHT22;13500;52.514;13.462;2022-09-01T00:45:12;16.50;98.30
8655;DHT22;13500;52.514;13.462;2022-09-01T00:47:40;16.60;98.30
8655;DHT22;13500;52.514;13.462;2022-09-01T00:50:10;16.50;98.30
8655;DHT22;13500;52.514;13.462;2022-09-01T00:52:43;16.50;98.30
8655;DHT22;13500;52.514;13.462;2022-09-01T00:55:16;16.60;98.30
8655;DHT22;13500;52.514;13.462;2022-09-01T00:57:44;16.60;98.40
8655;DHT22;13500;52.514;13.462;2022-09-01T01:00:16;16.70;98.50
8655;DHT22;13500;52.514;13.462;2022-09-01T01:02:45;16.50;98.50
8655;DHT22;13500;52.514;13.462;2022-09-01T01:05:15;16.50;98.60
8655;DHT22;13500;52.514;13.462;2022-09-01T01:07:44;16.50;98.70
8655;DHT22;13500;52.514;13.462;2022-09-01T01:10:15;16.40;98.80
8655;DHT22;13500;52.514;13.462;2022-09-01T01:12:43;16.40;98.90
8655;DHT22;13500;52.514;13.462;2022-09-01T01:15:13;16.40;99.00
8655;DHT22;13500;52.514;13.462;2022-09-01T01:17:43;16.40;99.20
8655;DHT22;13500;52.514;13.462;2022-09-01T01:20:14;16.40;99.30
8655;DHT22;13500;52.514;13.462;2022-09-01T01:23:06;16.40;99.30
8655;DHT22;13500;52.514;13.462;2022-09-01T01:25:42;16.40;99.30
8655;DHT22;13500;52.514;13.462;2022-09-01T01:28:14;16.40;99.50
8655;DHT22;13500;52.514;13.462;2022-09-01T01:30:50;16.40;99.70
8655;DHT22;13500;52.514;13.462;2022-09-01T01:33:19;16.40;99.80
8655;DHT22;13500;52.514;13.462;2022-09-01T01:35:51;16.30;99.90
8655;DHT22;13500;52.514;13.462;2022-09-01T01:38:21;16.30;99.90
8655;DHT22;13500;52.514;13.462;2022-09-01T01:40:52;16.20;99.90
8655;DHT22;13500;52.514;13.462;2022-09-01T01:43:22;16.20;99.90
8655;DHT22;13500;52.514;13.462;2022-09-01T01:45:54;16.20;99.90
8655;DHT22;13500;52.514;13.462;2022-09-01T01:48:29;16.10;99.90
8655;DHT22;13500;52.514;13.462;2022-09-01T01:51:01;16.10;99.90
8655;DHT22;13500;52.514;13.462;2022-09-01T01:53:31;16.10;99.90
8655;DHT22;13500;52.514;13.462;2022-09-01T01:56:00;16.00;99.90
8655;DHT22;13500;52.514;13.462;2022-09-01T01:58:32;16.00;99.90
8655;DHT22;13500;52.514;13.462;2022-09-01T02:01:07;16.00;99.90
8655;DHT22;13500;52.514;13.462;2022-09-01T02:03:37;15.90;99.90
8655;DHT22;13500;52.514;13.462;2022-09-01T02:06:07;15.90;99.90
8655;DHT22;13500;52.514;13.462;2022-09-01T02:08:37;15.90;99.90
8655;DHT22;13500;52.514;13.462;2022-09-01T02:11:08;15.90;99.90
8655;DHT22;13500;52.514;13.462;2022-09-01T02:13:39;15.90;99.90
8655;DHT22;13500;52.514;13.462;2022-09-01T02:16:09;15.90;99.90
8655;DHT22;13500;52.514;13.462;2022-09-01T02:18:41;15.90;99.90
8655;DHT22;13500;52.514;13.462;2022-09-01T02:21:10;15.90;99.90
8655;DHT22;13500;52.514;13.462;2022-09-01T02:23:45;15.90;99.90
8655;DHT22;13500;52.514;13.462;2022-09-01T02:26:16;15.90;99.90
8655;DHT22;13500;52.514;13.462;2022-09-01T02:28:48;15.80;99.90
8655;DHT22;13500;52.514;13.462;2022-09-01T02:31:25;15.80;99.90
8655;DHT22;13500;52.514;13.462;2022-09-01T02:33:54;15.70;99.90
8655;DHT22;13500;52.514;13.462;2022-09-01T02:36:23;15.70;99.90
8655;DHT22;13500;52.514;13.462;2022-09-01T02:38:53;15.70;99.90
8655;DHT22;13500;52.514;13.462;2022-09-01T02:41:24;15.70;99.90
8655;DHT22;13500;52.514;13.462;2022-09-01T02:43:58;15.60;99.90
8655;DHT22;13500;52.514;13.462;2022-09-01T02:46:28;15.60;99.90
8655;DHT22;13500;52.514;13.462;2022-09-01T02:48:57;15.50;99.90
8655;DHT22;13500;52.514;13.462;2022-09-01T02:51:27;15.50;99.90
8655;DHT22;13500;52.514;13.462;2022-09-01T02:53:56;15.50;99.90
8655;DHT22;13500;52.514;13.462;2022-09-01T02:56:25;15.50;99.90
8655;DHT22;13500;52.514;13.462;2022-09-01T02:58:55;15.40;99.90
8655;DHT22;13500;52.514;13.462;2022-09-01T03:01:26;15.40;99.90
8655;DHT22;13500;52.514;13.462;2022-09-01T03:03:57;15.40;99.90
8655;DHT22;13500;52.514;13.462;2022-09-01T03:06:26;15.30;99.90
8655;DHT22;13500;52.514;13.462;2022-09-01T03:08:56;15.20;99.90
8655;DHT22;13500;52.514;13.462;2022-09-01T03:11:28;15.10;99.90
8655;DHT22;13500;52.514;13.462;2022-09-01T03:13:58;15.00;99.90
8655;DHT22;13500;52.514;13.462;2022-09-01T03:16:27;14.90;99.90
8655;DHT22;13500;52.514;13.462;2022-09-01T03:18:57;14.90;99.90
8655;DHT22;13500;52.514;13.462;2022-09-01T03:21:25;14.80;99.90
8655;DHT22;13500;52.514;13.462;2022-09-01T03:23:54;14.80;99.90
8655;DHT22;13500;52.514;13.462;2022-09-01T03:26:24;14.70;99.90
8655;DHT22;13500;52.514;13.462;2022-09-01T03:28:55;14.60;99.90
8655;DHT22;13500;52.514;13.462;2022-09-01T03:31:24;14.60;99.90
8655;DHT22;13500;52.514;13.462;2022-09-01T03:33:59;14.60;99.90
8655;DHT22;13500;52.514;13.462;2022-09-01T03:36:32;14.60;99.90
8655;DHT22;13500;52.514;13.462;2022-09-01T03:39:00;14.50;99.90
8655;DHT22;13500;52.514;13.462;2022-09-01T03:41:30;14.50;99.90
8655;DHT22;13500;52.514;13.462;2022-09-01T03:43:59;14.50;99.90
8655;DHT22;13500;52.514;13.462;2022-09-01T03:46:30;14.40;99.90
8655;DHT22;13500;52.514;13.462;2022-09-01T03:49:04;14.40;99.90
8655;DHT22;13500;52.514;13.462;2022-09-01T03:51:36;14.40;99.90
8655;DHT22;13500;52.514;13.462;2022-09-01T03:54:06;14.40;99.90
8655;DHT22;13500;52.514;13.462;2022-09-01T03:56:34;14.30;99.90
8655;DHT22;13500;52.514;13.462;2022-09-01T03:59:10;14.30;99.90
8655;DHT22;13500;52.514;13.462;2022-09-01T04:01:44;14.20;99.90
8655;DHT22;13500;52.514;13.462;2022-09-01T04:04:14;14.20;99.90
8655;DHT22;13500;52.514;13.462;2022-09-01T04:06:44;14.20;99.90
8655;DHT22;13500;52.514;13.462;2022-09-01T04:09:13;14.10;99.90
8655;DHT22;13500;52.514;13.462;2022-09-01T04:11:43;14.10;99.90
8655;DHT22;13500;52.514;13.462;2022-09-01T04:14:15;14.00;99.90
8655;DHT22;13500;52.514;13.462;2022-09-01T04:16:46;14.00;99.90
8655;DHT22;13500;52.514;13.462;2022-09-01T04:19:34;14.10;99.90
8655;DHT22;13500;52.514;13.462;2022-09-01T04:22:05;14.00;99.90
8655;DHT22;13500;52.514;13.462;2022-09-01T04:24:41;14.00;99.90
8655;DHT22;13500;52.514;13.462;2022-09-01T04:27:13;14.00;99.90
8655;DHT22;13500;52.514;13.462;2022-09-01T04:29:43;13.90;99.90
8655;DHT22;13500;52.514;13.462;2022-09-01T04:32:11;13.90;99.90
8655;DHT22;13500;52.514;13.462;2022-09-01T04:34:44;13.90;99.90
8655;DHT22;13500;52.514;13.462;2022-09-01T04:37:15;13.90;99.90
8655;DHT22;13500;52.514;13.462;2022-09-01T04:39:48;13.90;99.90
8655;DHT22;13500;52.514;13.462;2022-09-01T04:42:23;14.00;99.90
8655;DHT22;13500;52.514;13.462;2022-09-01T04:44:54;14.00;99.90
8655;DHT22;13500;52.514;13.462;2022-09-01T04:47:29;14.00;99.90
8655;DHT22;13500;52.514;13.462;2022-09-01T04:50:05;14.00;99.90
8655;DHT22;13500;52.514;13.462;2022-09-01T04:52:43;14.00;99.90
8655;DHT22;13500;52.514;13.462;2022-09-01T04:55:27;14.00;99.90
8655;DHT22;13500;52.514;13.462;2022-09-01T04:57:58;14.00;99.90
8655;DHT22;13500;52.514;13.462;2022-09-01T05:00:29;14.10;99.90
8655;DHT22;13500;52.514;13.462;2022-09-01T05:03:01;14.10;99.90
8655;DHT22;13500;52.514;13.462;2022-09-01T05:05:49;14.20;99.90
8655;DHT22;13500;52.514;13.462;2022-09-01T05:08:20;14.20;99.90
8655;DHT22;13500;52.514;13.462;2022-09-01T05:10:52;14.30;99.90
8655;DHT22;13500;52.514;13.462;2022-09-01T05:13:36;14.30;99.90
8655;DHT22;13500;52.514;13.462;2022-09-01T05:16:10;14.30;99.90
8655;DHT22;13500;52.514;13.462;2022-09-01T05:18:44;14.30;99.90
8655;DHT22;13500;52.514;13.462;2022-09-01T05:21:15;14.30;99.90
8655;DHT22;13500;52.514;13.462;2022-09-01T05:23:45;14.40;99.90
8655;DHT22;13500;52.514;13.462;2022-09-01T05:26:18;14.50;99.90
8655;DHT22;13500;52.514;13.462;2022-09-01T05:28:49;14.50;99.90
8655;DHT22;13500;52.514;13.462;2022-09-01T05:31:21;14.50;99.90
8655;DHT22;13500;52.514;13.462;2022-09-01T05:33:50;14.60;99.90
8655;DHT22;13500;52.514;13.462;2022-09-01T05:36:21;14.60;99.90
8655;DHT22;13500;52.514;13.462;2022-09-01T05:38:51;14.60;99.90
8655;DHT22;13500;52.514;13.462;2022-09-01T05:41:20;14.70;99.90
8655;DHT22;13500;52.514;13.462;2022-09-01T05:43:50;14.70;99.90
8655;DHT22;13500;52.514;13.462;2022-09-01T05:46:27;14.80;99.90
8655;DHT22;13500;52.514;13.462;2022-09-01T05:48:57;14.90;99.90
8655;DHT22;13500;52.514;13.462;2022-09-01T05:51:26;14.90;99.90
8655;DHT22;13500;52.514;13.462;2022-09-01T05:54:16;14.90;99.90
8655;DHT22;13500;52.514;13.462;2022-09-01T05:56:44;14.90;99.90
8655;DHT22;13500;52.514;13.462;2022-09-01T05:59:16;15.00;99.90
8655;DHT22;13500;52.514;13.462;2022-09-01T06:01:55;15.00;99.90
8655;DHT22;13500;52.514;13.462;2022-09-01T06:04:24;15.10;99.90
8655;DHT22;13500;52.514;13.462;2022-09-01T06:06:59;15.10;99.90
8655;DHT22;13500;52.514;13.462;2022-09-01T06:09:36;15.20;99.90
8655;DHT22;13500;52.514;13.462;2022-09-01T06:12:05;15.30;99.90
8655;DHT22;13500;52.514;13.462;2022-09-01T06:14:44;15.30;99.90
8655;DHT22;13500;52.514;13.462;2022-09-01T06:17:16;15.40;99.90
8655;DHT22;13500;52.514;13.462;2022-09-01T06:19:48;15.50;99.90
8655;DHT22;13500;52.514;13.462;2022-09-01T06:22:18;15.50;99.90
8655;DHT22;13500;52.514;13.462;2022-09-01T06:24:47;15.60;99.90
8655;DHT22;13500;52.514;13.462;2022-09-01T06:27:26;15.70;99.90
8655;DHT22;13500;52.514;13.462;2022-09-01T06:29:55;15.80;99.90
8655;DHT22;13500;52.514;13.462;2022-09-01T06:32:25;15.90;99.90
8655;DHT22;13500;52.514;13.462;2022-09-01T06:34:54;16.00;99.90
8655;DHT22;13500;52.514;13.462;2022-09-01T06:37:24;16.00;99.90
8655;DHT22;13500;52.514;13.462;2022-09-01T06:39:56;15.90;99.90
8655;DHT22;13500;52.514;13.462;2022-09-01T06:42:25;15.80;99.90
8655;DHT22;13500;52.514;13.462;2022-09-01T06:44:58;15.90;99.90
8655;DHT22;13500;52.514;13.462;2022-09-01T06:47:28;16.00;99.90
8655;DHT22;13500;52.514;13.462;2022-09-01T06:49:58;16.10;99.90
8655;DHT22;13500;52.514;13.462;2022-09-01T06:52:27;16.30;99.90
8655;DHT22;13500;52.514;13.462;2022-09-01T06:55:16;16.40;99.90
8655;DHT22;13500;52.514;13.462;2022-09-01T06:57:45;16.60;99.90
8655;DHT22;13500;52.514;13.462;2022-09-01T07:00:35;16.60;99.90
8655;DHT22;13500;52.514;13.462;2022-09-01T07:03:12;16.90;99.90
8655;DHT22;13500;52.514;13.462;2022-09-01T07:05:47;17.00;99.90
8655;DHT22;13500;52.514;13.462;2022-09-01T07:08:55;17.10;99.90
8655;DHT22;13500;52.514;13.462;2022-09-01T07:12:02;17.30;99.90
8655;DHT22;13500;52.514;13.462;2022-09-01T07:14:51;17.50;99.90
8655;DHT22;13500;52.514;13.462;2022-09-01T07:17:41;17.80;99.90
8655;DHT22;13500;52.514;13.462;2022-09-01T07:20:11;18.20;99.90
8655;DHT22;13500;52.514;13.462;2022-09-01T07:22:50;18.50;99.90
8655;DHT22;13500;52.514;13.462;2022-09-01T07:25:37;18.90;99.90
8655;DHT22;13500;52.514;13.462;2022-09-01T07:28:31;19.70;99.90
8655;DHT22;13500;52.514;13.462;2022-09-01T07:31:04;21.00;99.90
8655;DHT22;13500;52.514;13.462;2022-09-01T07:33:58;22.10;99.90
8655;DHT22;13500;52.514;13.462;2022-09-01T07:36:49;24.80;99.90
8655;DHT22;13500;52.514;13.462;2022-09-01T07:39:39;25.60;99.60
8655;DHT22;13500;52.514;13.462;2022-09-01T07:42:35;28.00;96.20
8655;DHT22;13500;52.514;13.462;2022-09-01T07:45:44;29.80;92.10
8655;DHT22;13500;52.514;13.462;2022-09-01T07:48:26;30.90;85.00
8655;DHT22;13500;52.514;13.462;2022-09-01T07:51:15;31.70;80.50
8655;DHT22;13500;52.514;13.462;2022-09-01T07:54:04;29.90;73.90
8655;DHT22;13500;52.514;13.462;2022-09-01T07:56:33;30.50;74.30
8655;DHT22;13500;52.514;13.462;2022-09-01T07:59:07;30.30;75.50
8655;DHT22;13500;52.514;13.462;2022-09-01T08:01:48;30.80;71.40
8655;DHT22;13500;52.514;13.462;2022-09-01T08:04:17;29.70;69.60
8655;DHT22;13500;52.514;13.462;2022-09-01T08:06:49;31.00;72.00
8655;DHT22;13500;52.514;13.462;2022-09-01T08:09:19;32.80;67.90
8655;DHT22;13500;52.514;13.462;2022-09-01T08:12:05;33.20;66.70
8655;DHT22;13500;52.514;13.462;2022-09-01T08:14:38;34.50;63.90
8655;DHT22;13500;52.514;13.462;2022-09-01T08:17:06;35.00;59.50
8655;DHT22;13500;52.514;13.462;2022-09-01T08:19:57;34.10;59.00
8655;DHT22;13500;52.514;13.462;2022-09-01T08:22:49;34.70;57.80
8655;DHT22;13500;52.514;13.462;2022-09-01T08:25:24;33.20;59.00
8655;DHT22;13500;52.514;13.462;2022-09-01T08:27:53;32.50;58.00
8655;DHT22;13500;52.514;13.462;2022-09-01T08:30:26;30.40;59.10
8655;DHT22;13500;52.514;13.462;2022-09-01T08:32:56;29.70;60.60
8655;DHT22;13500;52.514;13.462;2022-09-01T08:35:24;30.70;59.30
8655;DHT22;13500;52.514;13.462;2022-09-01T08:37:57;30.60;58.60
8655;DHT22;13500;52.514;13.462;2022-09-01T08:40:27;29.70;60.00
8655;DHT22;13500;52.514;13.462;2022-09-01T08:43:05;31.10;59.40
8655;DHT22;13500;52.514;13.462;2022-09-01T08:45:47;33.00;58.70
8655;DHT22;13500;52.514;13.462;2022-09-01T08:48:18;34.90;55.70
8655;DHT22;13500;52.514;13.462;2022-09-01T08:51:14;34.90;52.70
8655;DHT22;13500;52.514;13.462;2022-09-01T08:54:03;32.30;54.70
8655;DHT22;13500;52.514;13.462;2022-09-01T08:56:34;30.00;56.30
8655;DHT22;13500;52.514;13.462;2022-09-01T08:59:05;28.20;58.50
8655;DHT22;13500;52.514;13.462;2022-09-01T09:02:16;27.70;60.10
8655;DHT22;13500;52.514;13.462;2022-09-01T09:04:56;29.80;59.00
8655;DHT22;13500;52.514;13.462;2022-09-01T09:07:40;29.50;58.50
8655;DHT22;13500;52.514;13.462;2022-09-01T09:10:15;28.00;58.40
8655;DHT22;13500;52.514;13.462;2022-09-01T09:12:57;29.10;58.00
8655;DHT22;13500;52.514;13.462;2022-09-01T09:15:34;28.10;59.10
8655;DHT22;13500;52.514;13.462;2022-09-01T09:18:13;27.30;58.70
8655;DHT22;13500;52.514;13.462;2022-09-01T09:21:10;28.30;59.40
8655;DHT22;13500;52.514;13.462;2022-09-01T09:23:44;30.40;57.90
8655;DHT22;13500;52.514;13.462;2022-09-01T09:26:12;32.40;55.40
8655;DHT22;13500;52.514;13.462;2022-09-01T09:28:49;32.20;54.10
8655;DHT22;13500;52.514;13.462;2022-09-01T09:31:27;31.50;54.80
8655;DHT22;13500;52.514;13.462;2022-09-01T09:33:56;33.10;55.70
8655;DHT22;13500;52.514;13.462;2022-09-01T09:36:31;34.60;53.40
8655;DHT22;13500;52.514;13.462;2022-09-01T09:39:09;33.50;52.10
8655;DHT22;13500;52.514;13.462;2022-09-01T09:41:38;31.80;53.30
8655;DHT22;13500;52.514;13.462;2022-09-01T09:44:18;32.80;54.30
8655;DHT22;13500;52.514;13.462;2022-09-01T09:46:48;31.30;53.10
8655;DHT22;13500;52.514;13.462;2022-09-01T09:49:19;30.40;54.20
8655;DHT22;13500;52.514;13.462;2022-09-01T09:52:15;31.40;54.10
8655;DHT22;13500;52.514;13.462;2022-09-01T09:55:00;30.00;54.10
8655;DHT22;13500;52.514;13.462;2022-09-01T09:57:31;31.90;54.30
8655;DHT22;13500;52.514;13.462;2022-09-01T10:00:06;32.70;53.10
8655;DHT22;13500;52.514;13.462;2022-09-01T10:02:45;30.80;52.10
8655;DHT22;13500;52.514;13.462;2022-09-01T10:05:24;27.90;55.50
8655;DHT22;13500;52.514;13.462;2022-09-01T10:07:55;27.50;56.40
8655;DHT22;13500;52.514;13.462;2022-09-01T10:10:28;26.50;58.10
8655;DHT22;13500;52.514;13.462;2022-09-01T10:12:57;26.50;57.50
8655;DHT22;13500;52.514;13.462;2022-09-01T10:15:31;28.10;57.10
8655;DHT22;13500;52.514;13.462;2022-09-01T10:18:05;28.20;55.40
8655;DHT22;13500;52.514;13.462;2022-09-01T10:20:56;29.40;54.70
8655;DHT22;13500;52.514;13.462;2022-09-01T10:23:28;31.50;52.60
8655;DHT22;13500;52.514;13.462;2022-09-01T10:26:00;29.10;53.20
8655;DHT22;13500;52.514;13.462;2022-09-01T10:28:40;26.90;54.70
8655;DHT22;13500;52.514;13.462;2022-09-01T10:31:19;25.70;57.30
8655;DHT22;13500;52.514;13.462;2022-09-01T10:33:48;25.40;58.10
8655;DHT22;13500;52.514;13.462;2022-09-01T10:36:17;25.00;58.50
8655;DHT22;13500;52.514;13.462;2022-09-01T10:38:50;26.30;58.60
8655;DHT22;13500;52.514;13.462;2022-09-01T10:41:48;28.40;56.90
8655;DHT22;13500;52.514;13.462;2022-09-01T10:44:28;29.90;53.10
8655;DHT22;13500;52.514;13.462;2022-09-01T10:47:02;28.20;54.00
8655;DHT22;13500;52.514;13.462;2022-09-01T10:52:59;29.60;54.40
8655;DHT22;13500;52.514;13.462;2022-09-01T10:55:34;31.20;51.90
8655;DHT22;13500;52.514;13.462;2022-09-01T10:58:31;32.30;51.20
8655;DHT22;13500;52.514;13.462;2022-09-01T11:07:29;31.00;50.30
8655;DHT22;13500;52.514;13.462;2022-09-01T11:10:35;29.40;51.80
8655;DHT22;13500;52.514;13.462;2022-09-01T11:13:38;28.20;54.40
8655;DHT22;13500;52.514;13.462;2022-09-01T11:16:33;28.70;53.30
8655;DHT22;13500;52.514;13.462;2022-09-01T11:19:34;27.90;53.40
8655;DHT22;13500;52.514;13.462;2022-09-01T11:22:10;27.60;53.60
8655;DHT22;13500;52.514;13.462;2022-09-01T11:24:51;26.20;54.80
8655;DHT22;13500;52.514;13.462;2022-09-01T11:27:56;24.80;56.60
8655;DHT22;13500;52.514;13.462;2022-09-01T11:30:33;24.10;57.60
8655;DHT22;13500;52.514;13.462;2022-09-01T11:33:12;24.00;59.00
8655;DHT22;13500;52.514;13.462;2022-09-01T11:35:46;25.20;57.40
8655;DHT22;13500;52.514;13.462;2022-09-01T11:38:24;26.10;56.10
8655;DHT22;13500;52.514;13.462;2022-09-01T11:40:55;26.40;55.10
8655;DHT22;13500;52.514;13.462;2022-09-01T11:43:24;25.50;55.80
8655;DHT22;13500;52.514;13.462;2022-09-01T11:46:02;25.00;57.30
8655;DHT22;13500;52.514;13.462;2022-09-01T11:48:33;24.50;57.00
8655;DHT22;13500;52.514;13.462;2022-09-01T11:51:04;24.20;56.80
8655;DHT22;13500;52.514;13.462;2022-09-01T11:53:32;23.80;57.80
8655;DHT22;13500;52.514;13.462;2022-09-01T11:56:13;23.70;57.80
8655;DHT22;13500;52.514;13.462;2022-09-01T11:58:42;23.60;58.00
8655;DHT22;13500;52.514;13.462;2022-09-01T12:01:16;23.80;58.10
8655;DHT22;13500;52.514;13.462;2022-09-01T12:03:45;23.40;58.50
8655;DHT22;13500;52.514;13.462;2022-09-01T12:06:21;23.20;57.90
8655;DHT22;13500;52.514;13.462;2022-09-01T12:08:53;22.70;58.70
8655;DHT22;13500;52.514;13.462;2022-09-01T12:11:24;22.50;58.40
8655;DHT22;13500;52.514;13.462;2022-09-01T12:13:58;22.90;58.20
8655;DHT22;13500;52.514;13.462;2022-09-01T12:16:28;22.90;57.20
8655;DHT22;13500;52.514;13.462;2022-09-01T12:18:58;23.50;58.00
8655;DHT22;13500;52.514;13.462;2022-09-01T12:21:29;23.40;57.00
8655;DHT22;13500;52.514;13.462;2022-09-01T12:24:11;22.80;59.80
8655;DHT22;13500;52.514;13.462;2022-09-01T12:26:40;23.10;60.70
8655;DHT22;13500;52.514;13.462;2022-09-01T12:29:09;22.80;62.50
8655;DHT22;13500;52.514;13.462;2022-09-01T12:31:40;22.80;62.50
8655;DHT22;13500;52.514;13.462;2022-09-01T12:34:24;22.70;62.70
8655;DHT22;13500;52.514;13.462;2022-09-01T12:37:05;22.40;62.70
8655;DHT22;13500;52.514;13.462;2022-09-01T12:39:35;22.50;63.40
8655;DHT22;13500;52.514;13.462;2022-09-01T12:42:06;22.50;63.80
8655;DHT22;13500;52.514;13.462;2022-09-01T12:44:44;22.20;64.60
8655;DHT22;13500;52.514;13.462;2022-09-01T12:47:44;21.80;64.90
8655;DHT22;13500;52.514;13.462;2022-09-01T12:50:43;22.10;65.20
8655;DHT22;13500;52.514;13.462;2022-09-01T12:53:21;22.30;65.40
8655;DHT22;13500;52.514;13.462;2022-09-01T12:56:22;22.70;64.80
8655;DHT22;13500;52.514;13.462;2022-09-01T12:59:04;23.00;63.90
8655;DHT22;13500;52.514;13.462;2022-09-01T13:01:42;23.40;63.50
8655;DHT22;13500;52.514;13.462;2022-09-01T13:04:19;23.10;63.50
8655;DHT22;13500;52.514;13.462;2022-09-01T13:06:50;23.50;63.10
8655;DHT22;13500;52.514;13.462;2022-09-01T13:09:18;24.10;63.30
8655;DHT22;13500;52.514;13.462;2022-09-01T13:11:47;25.10;63.00
8655;DHT22;13500;52.514;13.462;2022-09-01T13:14:33;25.00;60.70
8655;DHT22;13500;52.514;13.462;2022-09-01T13:17:01;24.40;59.90
8655;DHT22;13500;52.514;13.462;2022-09-01T13:19:31;24.40;59.90
8655;DHT22;13500;52.514;13.462;2022-09-01T13:21:59;24.10;59.70
8655;DHT22;13500;52.514;13.462;2022-09-01T13:24:28;23.60;58.60
8655;DHT22;13500;52.514;13.462;2022-09-01T13:26:58;23.30;58.70
8655;DHT22;13500;52.514;13.462;2022-09-01T13:29:46;23.00;58.90
8655;DHT22;13500;52.514;13.462;2022-09-01T13:32:15;23.30;59.80
8655;DHT22;13500;52.514;13.462;2022-09-01T13:34:50;23.40;60.40
8655;DHT22;13500;52.514;13.462;2022-09-01T13:37:20;23.40;60.60
8655;DHT22;13500;52.514;13.462;2022-09-01T13:39:49;23.40;60.50
8655;DHT22;13500;52.514;13.462;2022-09-01T13:42:18;23.20;60.50
8655;DHT22;13500;52.514;13.462;2022-09-01T13:44:46;23.10;60.80
8655;DHT22;13500;52.514;13.462;2022-09-01T13:47:21;23.00;60.90
8655;DHT22;13500;52.514;13.462;2022-09-01T13:49:59;22.80;60.90
8655;DHT22;13500;52.514;13.462;2022-09-01T13:52:34;23.20;60.50
8655;DHT22;13500;52.514;13.462;2022-09-01T13:55:03;23.40;59.70
8655;DHT22;13500;52.514;13.462;2022-09-01T13:57:32;23.50;59.50
8655;DHT22;13500;52.514;13.462;2022-09-01T14:00:05;23.80;59.50
8655;DHT22;13500;52.514;13.462;2022-09-01T14:02:36;24.00;59.30
8655;DHT22;13500;52.514;13.462;2022-09-01T14:05:07;24.10;59.20
8655;DHT22;13500;52.514;13.462;2022-09-01T14:07:35;24.30;59.80
8655;DHT22;13500;52.514;13.462;2022-09-01T14:10:04;24.10;60.80
8655;DHT22;13500;52.514;13.462;2022-09-01T14:12:33;24.20;60.80
8655;DHT22;13500;52.514;13.462;2022-09-01T14:15:01;24.30;60.70
8655;DHT22;13500;52.514;13.462;2022-09-01T14:17:41;24.30;61.10
8655;DHT22;13500;52.514;13.462;2022-09-01T14:20:14;24.40;60.40
8655;DHT22;13500;52.514;13.462;2022-09-01T14:22:44;24.00;60.80
8655;DHT22;13500;52.514;13.462;2022-09-01T14:25:13;23.90;61.00
8655;DHT22;13500;52.514;13.462;2022-09-01T14:27:41;24.10;61.30
8655;DHT22;13500;52.514;13.462;2022-09-01T14:30:14;24.30;61.00
8655;DHT22;13500;52.514;13.462;2022-09-01T14:32:42;24.70;59.80
8655;DHT22;13500;52.514;13.462;2022-09-01T14:35:13;25.00;59.60
8655;DHT22;13500;52.514;13.462;2022-09-01T14:37:41;25.60;58.80
8655;DHT22;13500;52.514;13.462;2022-09-01T14:40:12;26.00;58.30
8655;DHT22;13500;52.514;13.462;2022-09-01T14:42:43;26.00;58.30
8655;DHT22;13500;52.514;13.462;2022-09-01T14:45:16;25.60;58.00
8655;DHT22;13500;52.514;13.462;2022-09-01T14:47:45;25.80;59.20
8655;DHT22;13500;52.514;13.462;2022-09-01T14:50:16;26.90;57.60
8655;DHT22;13500;52.514;13.462;2022-09-01T14:52:51;28.00;56.80
8655;DHT22;13500;52.514;13.462;2022-09-01T14:55:21;28.90;55.10
8655;DHT22;13500;52.514;13.462;2022-09-01T14:57:49;29.20;54.30
8655;DHT22;13500;52.514;13.462;2022-09-01T15:00:18;27.70;54.80
8655;DHT22;13500;52.514;13.462;2022-09-01T15:02:47;28.10;54.90
8655;DHT22;13500;52.514;13.462;2022-09-01T15:05:17;27.80;54.70
8655;DHT22;13500;52.514;13.462;2022-09-01T15:07:46;27.40;54.90
8655;DHT22;13500;52.514;13.462;2022-09-01T15:10:17;26.90;55.90
8655;DHT22;13500;52.514;13.462;2022-09-01T15:12:53;26.80;55.50
8655;DHT22;13500;52.514;13.462;2022-09-01T15:15:22;26.10;56.00
8655;DHT22;13500;52.514;13.462;2022-09-01T15:17:50;26.30;56.40
8655;DHT22;13500;52.514;13.462;2022-09-01T15:20:22;26.10;55.90
8655;DHT22;13500;52.514;13.462;2022-09-01T15:23:08;25.60;56.10
8655;DHT22;13500;52.514;13.462;2022-09-01T15:25:37;24.40;57.40
8655;DHT22;13500;52.514;13.462;2022-09-01T15:28:05;24.20;58.40
8655;DHT22;13500;52.514;13.462;2022-09-01T15:30:34;24.40;58.50
8655;DHT22;13500;52.514;13.462;2022-09-01T15:33:04;25.00;58.90
8655;DHT22;13500;52.514;13.462;2022-09-01T15:35:34;25.80;58.70
8655;DHT22;13500;52.514;13.462;2022-09-01T15:38:02;26.20;58.00
8655;DHT22;13500;52.514;13.462;2022-09-01T15:40:32;26.30;58.10
8655;DHT22;13500;52.514;13.462;2022-09-01T15:43:00;26.40;58.00
8655;DHT22;13500;52.514;13.462;2022-09-01T15:45:28;26.30;57.50
8655;DHT22;13500;52.514;13.462;2022-09-01T15:47:56;26.00;57.90
8655;DHT22;13500;52.514;13.462;2022-09-01T15:50:25;25.70;58.30
8655;DHT22;13500;52.514;13.462;2022-09-01T15:52:57;25.40;58.70
8655;DHT22;13500;52.514;13.462;2022-09-01T15:55:27;25.10;58.70
8655;DHT22;13500;52.514;13.462;2022-09-01T15:57:57;24.60;59.20
8655;DHT22;13500;52.514;13.462;2022-09-01T16:00:28;25.40;58.50
8655;DHT22;13500;52.514;13.462;2022-09-01T16:02:57;25.60;57.80
8655;DHT22;13500;52.514;13.462;2022-09-01T16:05:28;25.30;58.10
8655;DHT22;13500;52.514;13.462;2022-09-01T16:07:58;25.10;58.30
8655;DHT22;13500;52.514;13.462;2022-09-01T16:10:28;25.20;58.10
8655;DHT22;13500;52.514;13.462;2022-09-01T16:13:02;25.10;57.60
8655;DHT22;13500;52.514;13.462;2022-09-01T16:15:31;24.80;58.00
8655;DHT22;13500;52.514;13.462;2022-09-01T16:18:23;24.60;58.70
8655;DHT22;13500;52.514;13.462;2022-09-01T16:20:58;24.00;58.80
8655;DHT22;13500;52.514;13.462;2022-09-01T16:23:39;23.90;59.40